createdAt,value
2023-01-18T00:00:48.412Z,75.25
2023-01-18T00:03:14.973Z,74.35
2023-01-18T00:05:41.991Z,72.15
2023-01-18T00:08:09.770Z,63.55
2023-01-18T00:10:36.662Z,75.75
2023-01-18T00:13:03.312Z,77.78
2023-01-18T00:15:30.958Z,76.95
2023-01-18T00:17:57.449Z,86.45
2023-01-18T00:20:25.990Z,77.63
2023-01-18T00:22:52.678Z,79.45
2023-01-18T00:25:19.998Z,75.80
2023-01-18T00:27:50.675Z,75.55
2023-01-18T00:30:18.169Z,81.75
2023-01-18T00:32:45.056Z,79.68
2023-01-18T00:35:12.027Z,79.35
2023-01-18T00:37:38.908Z,69.32
2023-01-18T00:40:06.208Z,75.63
2023-01-18T00:42:51.493Z,76.97
2023-01-18T00:45:18.114Z,83.10
2023-01-18T00:47:44.750Z,82.10
2023-01-18T00:50:11.757Z,77.90
2023-01-18T00:52:38.552Z,74.53
2023-01-18T00:55:05.404Z,78.40
2023-01-18T00:57:32.009Z,85.68
2023-01-18T00:59:58.529Z,92.97
2023-01-18T01:02:25.129Z,82.68
2023-01-18T01:05:10.500Z,79.43
2023-01-18T01:07:37.153Z,77.95
2023-01-18T01:10:09.120Z,82.88
2023-01-18T01:12:55.354Z,92.53
2023-01-18T01:15:40.756Z,80.30
2023-01-18T01:18:26.155Z,84.60
2023-01-18T01:21:11.562Z,79.90
2023-01-18T01:23:56.758Z,76.25
2023-01-18T01:26:23.280Z,78.10
2023-01-18T01:28:51.541Z,64.78
2023-01-18T01:31:18.942Z,91.28
2023-01-18T01:33:46.298Z,91.88
2023-01-18T01:36:14.519Z,72.30
2023-01-18T01:38:41.493Z,83.50
2023-01-18T01:41:18.549Z,69.13
2023-01-18T01:43:49.705Z,71.82
2023-01-18T01:46:37.612Z,71.95
2023-01-18T01:49:04.322Z,69.82
2023-01-18T01:51:31.581Z,68.93
2023-01-18T01:53:59.703Z,66.32
2023-01-18T01:56:26.483Z,73.40
2023-01-18T01:58:55.703Z,72.47
2023-01-18T02:01:22.592Z,73.70
2023-01-18T02:03:49.407Z,71.07
2023-01-18T02:06:31.293Z,67.72
2023-01-18T02:08:59.380Z,67.85
2023-01-18T02:11:25.989Z,83.32
2023-01-18T02:13:53.302Z,82.32
2023-01-18T02:16:19.846Z,62.70
2023-01-18T02:18:48.224Z,70.35
2023-01-18T02:21:41.087Z,59.40
2023-01-18T02:24:16.179Z,69.18
2023-01-18T02:26:45.781Z,59.97
2023-01-18T02:29:14.915Z,59.78
2023-01-18T02:31:46.438Z,56.00
2023-01-18T02:34:26.410Z,64.03
2023-01-18T02:37:05.591Z,61.45
2023-01-18T02:39:47.005Z,69.22
2023-01-18T02:42:42.995Z,58.95
2023-01-18T02:45:34.933Z,70.35
2023-01-18T02:48:02.376Z,69.50
2023-01-18T02:50:28.964Z,74.78
2023-01-18T02:52:55.662Z,65.55
2023-01-18T02:55:22.270Z,73.20
2023-01-18T02:57:48.861Z,60.80
2023-01-18T03:00:19.154Z,62.83
2023-01-18T03:02:47.529Z,59.25
2023-01-18T03:05:14.103Z,61.13
2023-01-18T03:07:52.449Z,82.35
2023-01-18T03:10:19.336Z,68.00
2023-01-18T03:12:51.948Z,66.03
2023-01-18T03:15:37.536Z,60.90
2023-01-18T03:18:07.428Z,81.63
2023-01-18T03:20:38.016Z,92.55
2023-01-18T03:23:37.509Z,71.93
2023-01-18T03:26:08.811Z,73.18
2023-01-18T03:28:55.829Z,63.63
2023-01-18T03:32:02.572Z,73.65
2023-01-18T03:34:33.844Z,77.85
2023-01-18T03:37:01.763Z,73.78
2023-01-18T03:39:30.787Z,60.58
2023-01-18T03:41:59.476Z,68.22
2023-01-18T03:44:31.671Z,57.92
2023-01-18T03:46:58.360Z,68.90
2023-01-18T03:49:25.820Z,62.78
2023-01-18T03:51:52.407Z,72.65
2023-01-18T03:54:37.994Z,58.33
2023-01-18T03:57:08.877Z,81.18
2023-01-18T03:59:37.651Z,66.68
2023-01-18T04:02:05.770Z,63.83
2023-01-18T04:04:32.669Z,63.95
2023-01-18T04:06:59.270Z,80.80
2023-01-18T04:09:26.629Z,73.32
2023-01-18T04:11:53.495Z,76.68
2023-01-18T04:14:20.254Z,85.90
2023-01-18T04:16:46.918Z,60.97
2023-01-18T04:19:13.512Z,94.72
2023-01-18T04:21:40.423Z,73.15
2023-01-18T04:24:07.295Z,70.32
2023-01-18T04:26:36.748Z,64.95
2023-01-18T04:29:03.668Z,69.18
2023-01-18T04:31:30.310Z,68.70
2023-01-18T04:33:56.906Z,67.60
2023-01-18T04:36:23.403Z,80.47
2023-01-18T04:38:54.141Z,72.78
2023-01-18T04:41:21.019Z,73.15
2023-01-18T04:43:47.581Z,77.57
2023-01-18T04:46:15.283Z,63.75
2023-01-18T04:48:42.321Z,69.63
2023-01-18T04:51:13.273Z,79.43
2023-01-18T04:53:40.869Z,68.38
2023-01-18T04:56:07.551Z,70.47
2023-01-18T04:58:34.150Z,73.85
2023-01-18T05:01:04.752Z,73.15
2023-01-18T05:03:31.672Z,66.55
2023-01-18T05:05:58.284Z,72.95
2023-01-18T05:08:24.816Z,85.97
2023-01-18T05:10:51.272Z,67.43
2023-01-18T05:13:17.820Z,69.20
2023-01-18T05:15:44.365Z,66.43
2023-01-18T05:18:11.379Z,64.82
2023-01-18T05:20:37.987Z,66.63
2023-01-18T05:23:10.812Z,53.47
2023-01-18T05:25:39.089Z,61.08
2023-01-18T05:28:06.072Z,64.15
2023-01-18T05:30:32.926Z,62.03
2023-01-18T05:33:01.465Z,71.82
2023-01-18T05:35:28.171Z,67.00
2023-01-18T05:37:54.706Z,83.70
2023-01-18T05:40:21.232Z,71.15
2023-01-18T05:42:47.899Z,66.20
2023-01-18T05:45:14.453Z,66.68
2023-01-18T05:47:41.356Z,57.25
2023-01-18T05:50:08.169Z,76.90
2023-01-18T05:52:34.789Z,59.92
2023-01-18T05:55:01.288Z,75.35
2023-01-18T05:57:27.801Z,66.75
2023-01-18T05:59:54.305Z,53.45
2023-01-18T06:02:20.852Z,57.58
2023-01-18T06:04:47.894Z,44.67
2023-01-18T06:07:15.019Z,51.30
2023-01-18T06:09:42.977Z,37.92
2023-01-18T06:12:10.159Z,44.28
2023-01-18T06:14:36.660Z,51.08
2023-01-18T06:17:03.317Z,49.25
2023-01-18T06:19:29.889Z,52.17
2023-01-18T06:21:56.445Z,45.08
2023-01-18T06:24:22.944Z,35.90
2023-01-18T06:26:49.440Z,41.63
2023-01-18T06:29:16.027Z,57.17
2023-01-18T06:31:42.583Z,56.88
2023-01-18T06:34:09.498Z,52.67
2023-01-18T06:36:36.652Z,47.00
2023-01-18T06:39:03.830Z,65.38
2023-01-18T06:41:30.400Z,60.30
2023-01-18T06:43:57.499Z,46.33
2023-01-18T06:46:24.047Z,60.67
2023-01-18T06:48:50.623Z,55.25
2023-01-18T06:51:17.146Z,57.75
2023-01-18T06:53:43.685Z,47.10
2023-01-18T06:56:10.570Z,43.45
2023-01-18T06:58:37.388Z,48.88
2023-01-18T07:01:04.086Z,41.85
2023-01-18T07:03:31.300Z,47.67
2023-01-18T07:05:58.935Z,44.60
2023-01-18T07:08:26.986Z,42.88
2023-01-18T07:10:54.210Z,43.90
2023-01-18T07:13:21.733Z,44.95
2023-01-18T07:15:56.574Z,46.60
2023-01-18T07:18:23.403Z,47.40
2023-01-18T07:21:10.288Z,55.65
2023-01-18T07:23:38.420Z,48.35
2023-01-18T07:26:06.301Z,59.67
2023-01-18T07:28:33.852Z,57.17
2023-01-18T07:31:00.790Z,63.95
2023-01-18T07:33:27.909Z,44.72
2023-01-18T07:35:55.079Z,52.28
2023-01-18T07:38:22.425Z,51.78
2023-01-18T07:40:49.327Z,54.15
2023-01-18T07:43:16.425Z,58.10
2023-01-18T07:45:44.093Z,49.50
2023-01-18T07:48:10.741Z,55.80
2023-01-18T07:50:37.364Z,44.15
2023-01-18T07:53:06.593Z,57.28
2023-01-18T07:55:33.515Z,46.72
2023-01-18T07:58:00.542Z,43.80
2023-01-18T08:00:27.546Z,61.60
2023-01-18T08:02:54.633Z,53.67
2023-01-18T08:05:24.020Z,45.17
2023-01-18T08:07:50.911Z,41.28
2023-01-18T08:10:18.326Z,47.83
2023-01-18T08:12:44.782Z,52.83
2023-01-18T08:15:11.470Z,53.15
2023-01-18T08:17:38.077Z,40.15
2023-01-18T08:20:05.742Z,36.47
2023-01-18T08:22:32.505Z,42.20
2023-01-18T08:24:59.205Z,49.55
2023-01-18T08:27:27.234Z,36.83
2023-01-18T08:29:54.156Z,47.38
2023-01-18T08:32:20.804Z,53.25
2023-01-18T08:34:47.408Z,33.10
2023-01-18T08:37:14.009Z,34.42
2023-01-18T08:39:40.701Z,38.80
2023-01-18T08:42:07.211Z,36.08
2023-01-18T08:44:33.783Z,33.92
2023-01-18T08:47:00.516Z,39.75
2023-01-18T08:49:27.591Z,31.42
2023-01-18T08:51:54.053Z,48.97
2023-01-18T08:54:20.573Z,35.97
2023-01-18T08:56:47.497Z,39.30
2023-01-18T08:59:14.040Z,37.03
2023-01-18T09:01:40.716Z,39.10
2023-01-18T09:04:07.434Z,37.03
2023-01-18T09:06:33.889Z,42.55
2023-01-18T09:09:00.911Z,43.35
2023-01-18T09:11:27.498Z,45.25
2023-01-18T09:14:00.720Z,43.65
2023-01-18T09:16:28.388Z,38.72
2023-01-18T09:18:56.505Z,46.65
2023-01-18T09:21:23.263Z,36.15
2023-01-18T09:23:50.973Z,39.25
2023-01-18T09:26:18.444Z,33.67
2023-01-18T09:28:47.195Z,36.20
2023-01-18T09:31:13.961Z,34.00
2023-01-18T09:33:51.229Z,36.08
2023-01-18T09:36:21.410Z,34.58
2023-01-18T09:38:47.929Z,37.55
2023-01-18T09:41:26.636Z,37.33
2023-01-18T09:43:55.010Z,29.38
2023-01-18T09:46:22.403Z,36.70
2023-01-18T09:49:00.652Z,25.20
2023-01-18T09:51:45.773Z,41.15
2023-01-18T09:54:15.706Z,25.17
2023-01-18T09:56:46.789Z,30.58
2023-01-18T09:59:21.066Z,17.50
2023-01-18T10:01:48.378Z,30.63
2023-01-18T10:04:18.317Z,22.85
2023-01-18T10:06:51.178Z,25.80
2023-01-18T10:09:22.528Z,36.85
2023-01-18T10:11:59.823Z,29.85
2023-01-18T10:14:38.164Z,30.58
2023-01-18T10:17:09.170Z,28.30
2023-01-18T10:19:35.722Z,20.27
2023-01-18T10:22:07.663Z,31.83
2023-01-18T10:24:46.545Z,38.35
2023-01-18T10:27:17.689Z,31.48
2023-01-18T10:29:52.806Z,36.10
2023-01-18T10:32:21.117Z,26.23
2023-01-18T10:34:49.339Z,24.80
2023-01-18T10:37:38.834Z,31.00
2023-01-18T10:40:07.835Z,27.45
2023-01-18T10:42:38.028Z,29.00
2023-01-18T10:45:06.165Z,25.27
2023-01-18T10:47:33.983Z,24.70
2023-01-18T10:50:00.632Z,24.43
2023-01-18T10:52:28.525Z,23.83
2023-01-18T10:55:01.603Z,30.00
2023-01-18T10:57:34.367Z,19.40
2023-01-18T11:00:01.360Z,20.13
2023-01-18T11:02:34.946Z,23.17
2023-01-18T11:05:08.097Z,26.43
2023-01-18T11:07:34.618Z,21.03
2023-01-18T11:10:09.696Z,21.97
2023-01-18T11:12:44.307Z,20.80
2023-01-18T11:15:13.934Z,20.90
2023-01-18T11:17:42.020Z,22.60
2023-01-18T11:20:19.980Z,21.80
2023-01-18T11:22:59.000Z,24.20
2023-01-18T11:25:26.827Z,22.03
2023-01-18T11:28:00.979Z,21.43
2023-01-18T11:30:27.774Z,16.50
2023-01-18T11:32:54.740Z,16.57
2023-01-18T11:35:30.983Z,18.40
2023-01-18T11:37:59.451Z,20.40
2023-01-18T11:40:28.143Z,23.90
2023-01-18T11:42:59.650Z,17.47
2023-01-18T11:45:30.454Z,14.20
2023-01-18T11:48:04.367Z,22.87
2023-01-18T11:51:00.606Z,20.00
2023-01-18T11:53:46.141Z,18.10
2023-01-18T11:56:12.588Z,14.00
2023-01-18T11:58:40.188Z,17.67
2023-01-18T12:01:09.838Z,15.50
2023-01-18T12:03:45.017Z,19.60
2023-01-18T12:06:30.432Z,20.73
2023-01-18T12:09:21.072Z,15.90
2023-01-18T12:12:06.490Z,18.50
2023-01-18T12:14:59.955Z,12.20
2023-01-18T12:17:32.428Z,16.87
2023-01-18T12:20:05.016Z,17.23
2023-01-18T12:22:53.586Z,18.03
2023-01-18T12:25:37.282Z,13.23
2023-01-18T12:28:07.655Z,12.33
2023-01-18T12:30:34.242Z,21.10
2023-01-18T12:33:02.223Z,16.30
2023-01-18T12:35:44.961Z,20.83
2023-01-18T12:38:13.566Z,16.73
2023-01-18T12:40:49.616Z,14.30
2023-01-18T12:43:30.091Z,14.80
2023-01-18T12:46:05.198Z,16.23
2023-01-18T12:48:41.181Z,11.50
2023-01-18T12:51:16.152Z,9.33
2023-01-18T12:53:46.127Z,14.40
2023-01-18T12:56:32.141Z,13.07
2023-01-18T12:59:01.549Z,13.40
2023-01-18T13:01:30.912Z,10.50
2023-01-18T13:04:00.564Z,23.10
2023-01-18T13:06:27.471Z,16.30
2023-01-18T13:09:02.820Z,14.60
2023-01-18T13:11:34.730Z,16.13
2023-01-18T13:14:09.482Z,18.37
2023-01-18T13:16:57.404Z,12.00
2023-01-18T13:19:29.405Z,15.43
2023-01-18T13:22:00.303Z,12.83
2023-01-18T13:24:36.437Z,15.40
2023-01-18T13:27:10.764Z,13.73
2023-01-18T13:29:38.046Z,14.77
2023-01-18T13:32:20.257Z,14.50
2023-01-18T13:35:12.886Z,17.33
2023-01-18T13:37:50.680Z,10.60
2023-01-18T13:40:22.341Z,23.50
2023-01-18T13:42:48.804Z,13.13
2023-01-18T13:45:26.496Z,15.10
2023-01-18T13:47:53.067Z,16.00
2023-01-18T13:50:28.801Z,35.13
2023-01-18T13:53:10.728Z,16.30
2023-01-18T13:55:37.309Z,16.80
2023-01-18T13:58:04.008Z,17.67
2023-01-18T14:00:31.496Z,17.10
2023-01-18T14:03:06.052Z,14.63
2023-01-18T14:05:43.156Z,11.77
2023-01-18T14:08:17.812Z,20.40
2023-01-18T14:10:49.415Z,15.37
2023-01-18T14:13:17.676Z,16.83
2023-01-18T14:15:47.371Z,29.67
2023-01-18T14:18:20.514Z,24.00
2023-01-18T14:20:51.705Z,19.10
2023-01-18T14:23:27.357Z,18.83
2023-01-18T14:26:01.809Z,11.90
2023-01-18T14:28:55.134Z,14.77
2023-01-18T14:31:27.842Z,16.53
2023-01-18T14:33:54.444Z,20.73
2023-01-18T14:36:22.497Z,14.60
2023-01-18T14:39:06.888Z,8.40
2023-01-18T14:41:33.600Z,11.20
2023-01-18T14:44:00.191Z,5.20
2023-01-18T14:46:27.269Z,9.67
2023-01-18T14:48:56.177Z,14.10
2023-01-18T14:51:25.063Z,9.63
2023-01-18T14:53:54.004Z,25.07
2023-01-18T14:56:21.826Z,7.13
2023-01-18T14:58:51.779Z,7.83
2023-01-18T15:01:27.837Z,8.77
2023-01-18T15:03:55.679Z,15.13
2023-01-18T15:06:40.322Z,7.70
2023-01-18T15:09:08.013Z,12.50
2023-01-18T15:11:36.394Z,6.63
2023-01-18T15:14:04.171Z,12.23
2023-01-18T15:16:31.655Z,6.70
2023-01-18T15:19:31.099Z,7.10
2023-01-18T15:22:00.331Z,6.80
2023-01-18T15:24:29.150Z,9.07
2023-01-18T15:26:57.297Z,6.13
2023-01-18T15:29:26.288Z,10.67
2023-01-18T15:31:54.996Z,3.73
2023-01-18T15:34:29.431Z,7.73
2023-01-18T15:36:57.275Z,8.97
2023-01-18T15:39:24.275Z,10.53
2023-01-18T15:41:52.079Z,6.90
2023-01-18T15:44:28.129Z,12.57
2023-01-18T15:46:54.707Z,6.50
2023-01-18T15:49:21.599Z,11.50
2023-01-18T15:51:56.475Z,6.73
2023-01-18T15:54:24.842Z,3.53
2023-01-18T15:56:51.852Z,11.60
2023-01-18T15:59:20.996Z,8.03
2023-01-18T16:02:03.125Z,7.03
2023-01-18T16:04:30.151Z,5.90
2023-01-18T16:06:56.886Z,9.83
2023-01-18T16:09:23.803Z,6.30
2023-01-18T16:11:54.079Z,9.07
2023-01-18T16:14:24.923Z,15.00
2023-01-18T16:16:53.016Z,9.10
2023-01-18T16:19:25.872Z,7.35
2023-01-18T16:21:59.860Z,3.17
2023-01-18T16:24:29.871Z,9.18
2023-01-18T16:26:58.640Z,8.63
2023-01-18T16:29:25.522Z,4.50
2023-01-18T16:31:52.253Z,8.83
2023-01-18T16:34:19.332Z,3.25
2023-01-18T16:36:46.661Z,4.53
2023-01-18T16:39:13.271Z,9.07
2023-01-18T16:41:41.028Z,10.88
2023-01-18T16:44:07.529Z,5.18
2023-01-18T16:46:35.694Z,11.20
2023-01-18T16:49:02.579Z,13.35
2023-01-18T16:51:29.385Z,9.10
2023-01-18T16:53:56.265Z,7.72
2023-01-18T16:56:22.899Z,12.73
2023-01-18T16:58:49.597Z,19.05
2023-01-18T17:01:16.467Z,10.55
2023-01-18T17:03:43.370Z,12.50
2023-01-18T17:06:15.394Z,17.77
2023-01-18T17:08:42.117Z,5.97
2023-01-18T17:11:10.449Z,13.73
2023-01-18T17:13:37.140Z,10.50
2023-01-18T17:16:03.883Z,10.63
2023-01-18T17:18:30.894Z,10.75
2023-01-18T17:20:57.547Z,13.25
2023-01-18T17:23:25.675Z,12.73
2023-01-18T17:25:52.421Z,25.88
2023-01-18T17:28:19.549Z,12.75
2023-01-18T17:30:47.604Z,11.23
2023-01-18T17:33:18.525Z,16.95
2023-01-18T17:35:45.829Z,16.23
2023-01-18T17:38:23.118Z,13.82
2023-01-18T17:40:50.669Z,16.98
2023-01-18T17:43:28.557Z,15.90
2023-01-18T17:46:02.383Z,15.63
2023-01-18T17:48:29.273Z,15.88
2023-01-18T17:50:56.076Z,13.60
2023-01-18T17:53:22.783Z,13.18
2023-01-18T17:55:50.591Z,12.50
2023-01-18T17:58:17.135Z,14.65
2023-01-18T18:00:44.515Z,10.20
2023-01-18T18:03:11.187Z,16.02
2023-01-18T18:05:37.910Z,22.95
2023-01-18T18:08:04.568Z,13.82
2023-01-18T18:10:31.194Z,14.98
2023-01-18T18:12:59.626Z,12.93
2023-01-18T18:15:26.457Z,19.45
2023-01-18T18:17:53.181Z,28.10
2023-01-18T18:20:21.977Z,16.92
2023-01-18T18:22:49.188Z,14.43
2023-01-18T18:25:15.883Z,16.77
2023-01-18T18:27:47.005Z,11.77
2023-01-18T18:30:14.635Z,12.27
2023-01-18T18:32:41.352Z,14.27
2023-01-18T18:35:23.088Z,11.70
2023-01-18T18:37:50.862Z,11.52
2023-01-18T18:40:17.752Z,15.68
2023-01-18T18:42:52.746Z,14.55
2023-01-18T18:45:24.555Z,14.80
2023-01-18T18:47:51.687Z,15.38
2023-01-18T18:50:18.679Z,14.18
2023-01-18T18:52:45.389Z,15.68
2023-01-18T18:55:12.349Z,11.95
2023-01-18T18:57:39.680Z,15.38
2023-01-18T19:00:07.623Z,14.10
2023-01-18T19:02:34.795Z,13.68
2023-01-18T19:05:01.703Z,12.65
2023-01-18T19:07:28.500Z,13.60
2023-01-18T19:09:55.544Z,14.02
2023-01-18T19:12:22.601Z,13.73
2023-01-18T19:14:49.570Z,9.70
2023-01-18T19:17:29.035Z,11.98
2023-01-18T19:19:56.767Z,12.93
2023-01-18T19:22:23.594Z,10.55
2023-01-18T19:24:50.334Z,12.23
2023-01-18T19:27:18.436Z,25.00
2023-01-18T19:29:45.228Z,10.23
2023-01-18T19:32:12.119Z,12.40
2023-01-18T19:34:39.336Z,12.90
2023-01-18T19:37:06.854Z,10.82
2023-01-18T19:39:35.068Z,16.42
2023-01-18T19:42:02.221Z,18.98
2023-01-18T19:44:29.125Z,15.82
2023-01-18T19:46:57.054Z,21.08
2023-01-18T19:49:26.477Z,12.60
2023-01-18T19:51:54.896Z,14.77
2023-01-18T19:54:22.113Z,15.25
2023-01-18T19:56:49.001Z,26.20
2023-01-18T19:59:16.415Z,13.50
2023-01-18T20:01:43.648Z,15.70
2023-01-18T20:04:10.680Z,16.60
2023-01-18T20:06:38.696Z,15.70
2023-01-18T20:09:17.698Z,18.20
2023-01-18T20:11:45.630Z,17.52
2023-01-18T20:14:12.325Z,17.15
2023-01-18T20:16:39.385Z,10.63
2023-01-18T20:19:07.267Z,13.25
2023-01-18T20:21:34.087Z,27.08
2023-01-18T20:24:01.144Z,17.92
2023-01-18T20:26:36.443Z,17.50
2023-01-18T20:29:06.823Z,20.98
2023-01-18T20:31:34.812Z,16.90
2023-01-18T20:34:01.864Z,16.60
2023-01-18T20:36:29.393Z,11.50
2023-01-18T20:38:56.487Z,14.45
2023-01-18T20:41:23.385Z,18.90
2023-01-18T20:43:49.969Z,16.40
2023-01-18T20:46:16.934Z,20.40
2023-01-18T20:48:44.461Z,17.33
2023-01-18T20:51:11.212Z,18.35
2023-01-18T20:53:38.225Z,22.05
2023-01-18T20:56:27.742Z,21.50
2023-01-18T20:58:55.712Z,14.48
2023-01-18T21:01:22.648Z,17.67
2023-01-18T21:03:53.680Z,16.85
2023-01-18T21:06:20.525Z,19.08
2023-01-18T21:08:47.073Z,26.27
2023-01-18T21:11:18.713Z,19.25
2023-01-18T21:13:45.651Z,17.27
2023-01-18T21:16:12.732Z,21.40
2023-01-18T21:18:41.365Z,20.77
2023-01-18T21:21:09.627Z,20.52
2023-01-18T21:23:42.281Z,19.63
2023-01-18T21:26:10.321Z,14.05
2023-01-18T21:28:37.230Z,17.20
2023-01-18T21:31:04.325Z,19.35
2023-01-18T21:33:31.748Z,13.40
2023-01-18T21:36:05.299Z,18.95
2023-01-18T21:38:31.999Z,15.02
2023-01-18T21:41:18.616Z,16.30
2023-01-18T21:44:03.564Z,15.80
2023-01-18T21:46:30.138Z,17.90
2023-01-18T21:48:56.793Z,17.05
2023-01-18T21:51:42.181Z,16.02
2023-01-18T21:54:17.368Z,17.55
2023-01-18T21:56:46.863Z,15.73
2023-01-18T21:59:14.000Z,23.55
2023-01-18T22:01:43.077Z,18.10
2023-01-18T22:04:29.629Z,12.23
2023-01-18T22:06:59.319Z,15.35
2023-01-18T22:09:26.963Z,17.05
2023-01-18T22:11:54.997Z,18.13
2023-01-18T22:14:22.313Z,13.13
2023-01-18T22:16:48.973Z,15.13
2023-01-18T22:19:15.759Z,20.42
2023-01-18T22:21:42.635Z,25.23
2023-01-18T22:24:09.284Z,11.40
2023-01-18T22:26:36.536Z,12.60
2023-01-18T22:29:03.320Z,17.35
2023-01-18T22:31:30.114Z,24.52
2023-01-18T22:33:57.332Z,17.77
2023-01-18T22:36:24.196Z,24.33
2023-01-18T22:38:50.667Z,15.00
2023-01-18T22:41:18.642Z,19.55
2023-01-18T22:43:45.523Z,19.27
2023-01-18T22:46:13.942Z,17.63
2023-01-18T22:48:40.912Z,19.27
2023-01-18T22:51:08.415Z,25.42
2023-01-18T22:53:34.977Z,19.85
2023-01-18T22:56:03.063Z,23.48
2023-01-18T22:58:30.296Z,25.15
2023-01-18T23:00:56.953Z,20.77
2023-01-18T23:03:23.614Z,25.67
2023-01-18T23:05:57.240Z,17.00
2023-01-18T23:08:24.353Z,19.05
2023-01-18T23:10:55.718Z,13.00
2023-01-18T23:13:22.330Z,26.20
2023-01-18T23:16:07.709Z,21.17
2023-01-18T23:18:34.339Z,18.08
2023-01-18T23:21:01.103Z,23.50
2023-01-18T23:23:27.550Z,21.33
2023-01-18T23:25:54.880Z,27.90
2023-01-18T23:28:27.395Z,18.05
2023-01-18T23:30:54.611Z,22.77
2023-01-18T23:33:21.753Z,14.00
2023-01-18T23:35:48.530Z,18.30
2023-01-18T23:38:16.112Z,22.67
2023-01-18T23:41:01.340Z,20.17
2023-01-18T23:43:46.598Z,21.95
2023-01-18T23:46:32.000Z,22.30
2023-01-18T23:49:17.205Z,24.83
2023-01-18T23:52:02.581Z,24.90
2023-01-18T23:54:29.233Z,28.85
2023-01-18T23:56:55.933Z,20.00
2023-01-18T23:59:22.487Z,21.45
